createdAt,value
2023-03-19T00:02:39.528Z,10.27
2023-03-19T00:05:27.353Z,10.38
2023-03-19T00:08:15.872Z,10.82
2023-03-19T00:11:12.428Z,10.30
2023-03-19T00:14:00.655Z,11.10
2023-03-19T00:16:48.503Z,13.25
2023-03-19T00:19:36.596Z,11.80
2023-03-19T00:22:24.704Z,11.02
2023-03-19T00:25:12.794Z,10.88
2023-03-19T00:28:00.686Z,10.90
2023-03-19T00:30:48.734Z,11.70
2023-03-19T00:33:36.884Z,10.57
2023-03-19T00:36:27.211Z,14.10
2023-03-19T00:39:15.242Z,11.45
2023-03-19T00:42:03.153Z,12.10
2023-03-19T00:44:51.196Z,10.75
2023-03-19T00:47:39.460Z,13.35
2023-03-19T00:50:27.411Z,11.48
2023-03-19T00:53:15.904Z,16.83
2023-03-19T00:56:03.998Z,12.90
2023-03-19T00:58:51.880Z,10.52
2023-03-19T01:01:39.782Z,9.23
2023-03-19T01:04:27.817Z,9.05
2023-03-19T01:07:16.042Z,13.93
2023-03-19T01:10:04.571Z,9.73
2023-03-19T01:12:54.254Z,9.13
2023-03-19T01:15:46.598Z,12.80
2023-03-19T01:18:34.995Z,11.25
2023-03-19T01:21:23.099Z,12.73
2023-03-19T01:24:11.033Z,12.90
2023-03-19T01:26:59.174Z,13.32
2023-03-19T01:29:47.350Z,12.70
2023-03-19T01:32:35.598Z,12.40
2023-03-19T01:35:23.641Z,12.60
2023-03-19T01:38:11.872Z,11.60
2023-03-19T01:41:01.191Z,16.77
2023-03-19T01:43:49.275Z,15.57
2023-03-19T01:46:40.850Z,16.02
2023-03-19T01:49:30.879Z,12.98
2023-03-19T01:52:19.784Z,13.75
2023-03-19T01:55:08.168Z,13.65
2023-03-19T01:57:56.866Z,14.35
2023-03-19T02:00:45.975Z,19.20
2023-03-19T02:03:34.627Z,17.00
2023-03-19T02:06:23.913Z,13.57
2023-03-19T02:09:12.600Z,15.18
2023-03-19T02:12:02.058Z,16.30
2023-03-19T02:14:49.919Z,19.27
2023-03-19T02:17:38.158Z,18.33
2023-03-19T02:20:44.613Z,18.38
2023-03-19T02:23:53.430Z,16.90
2023-03-19T02:26:43.418Z,18.20
2023-03-19T02:29:31.242Z,21.42
2023-03-19T02:32:19.216Z,19.58
2023-03-19T02:35:09.366Z,19.77
2023-03-19T02:37:57.205Z,18.25
2023-03-19T02:41:14.366Z,20.48
2023-03-19T02:44:04.641Z,17.60
2023-03-19T02:46:52.629Z,17.60
2023-03-19T02:49:40.611Z,16.83
2023-03-19T02:52:28.532Z,22.15
2023-03-19T02:55:18.451Z,22.77
2023-03-19T02:58:06.768Z,21.35
2023-03-19T03:00:54.639Z,21.20
2023-03-19T03:03:42.764Z,23.60
2023-03-19T03:06:30.618Z,20.55
2023-03-19T03:09:18.970Z,19.48
2023-03-19T03:12:07.527Z,21.58
2023-03-19T03:14:55.498Z,18.73
2023-03-19T03:17:47.672Z,14.20
2023-03-19T03:20:36.177Z,18.17
2023-03-19T03:23:31.747Z,19.58
2023-03-19T03:26:20.125Z,15.65
2023-03-19T03:29:11.133Z,20.25
2023-03-19T03:31:58.999Z,17.27
2023-03-19T03:34:50.450Z,18.45
2023-03-19T03:37:38.403Z,17.50
2023-03-19T03:40:27.356Z,20.58
2023-03-19T03:43:15.888Z,18.98
2023-03-19T03:46:06.302Z,16.60
2023-03-19T03:48:54.262Z,14.20
2023-03-19T03:51:43.535Z,17.08
2023-03-19T03:54:31.423Z,17.10
2023-03-19T03:57:19.252Z,13.90
2023-03-19T04:00:08.138Z,18.20
2023-03-19T04:02:56.020Z,21.15
2023-03-19T04:05:44.944Z,16.77
2023-03-19T04:08:32.957Z,17.15
2023-03-19T04:11:21.155Z,18.83
2023-03-19T04:14:09.926Z,19.45
2023-03-19T04:16:58.001Z,19.33
2023-03-19T04:19:45.987Z,20.35
2023-03-19T04:22:34.195Z,17.40
2023-03-19T04:25:22.422Z,18.42
2023-03-19T04:28:12.799Z,22.48
2023-03-19T04:31:07.014Z,15.95
2023-03-19T04:33:55.111Z,19.25
2023-03-19T04:36:43.274Z,17.05
2023-03-19T04:39:32.132Z,18.50
2023-03-19T04:42:20.384Z,16.95
2023-03-19T04:45:08.912Z,20.63
2023-03-19T04:47:56.962Z,16.83
2023-03-19T04:50:47.295Z,18.98
2023-03-19T04:53:36.450Z,20.02
2023-03-19T04:56:24.648Z,18.67
2023-03-19T04:59:12.456Z,17.67
2023-03-19T05:02:00.665Z,21.30
2023-03-19T05:04:49.236Z,20.92
2023-03-19T05:07:38.225Z,17.08
2023-03-19T05:10:26.300Z,20.10
2023-03-19T05:13:14.261Z,20.92
2023-03-19T05:16:02.305Z,17.30
2023-03-19T05:18:50.612Z,23.38
2023-03-19T05:21:38.434Z,19.00
2023-03-19T05:24:27.170Z,22.13
2023-03-19T05:27:15.395Z,14.18
2023-03-19T05:30:04.587Z,24.00
2023-03-19T05:32:55.470Z,16.10
2023-03-19T05:35:43.668Z,21.10
2023-03-19T05:38:31.473Z,20.25
2023-03-19T05:41:19.261Z,15.85
2023-03-19T05:44:07.225Z,16.90
2023-03-19T05:46:55.931Z,15.18
2023-03-19T05:49:43.782Z,21.55
2023-03-19T05:52:32.254Z,19.45
2023-03-19T05:55:20.160Z,19.23
2023-03-19T05:58:08.011Z,21.42
2023-03-19T06:00:56.648Z,19.95
2023-03-19T06:03:44.557Z,19.20
2023-03-19T06:06:32.980Z,16.88
2023-03-19T06:09:20.939Z,17.20
2023-03-19T06:12:08.949Z,15.48
2023-03-19T06:14:57.239Z,21.10
2023-03-19T06:17:45.150Z,15.52
2023-03-19T06:20:33.440Z,22.92
2023-03-19T06:23:21.452Z,17.73
2023-03-19T06:26:09.409Z,18.35
2023-03-19T06:28:57.472Z,18.80
2023-03-19T06:31:45.656Z,18.05
2023-03-19T06:34:33.727Z,17.95
2023-03-19T06:37:21.995Z,19.88
2023-03-19T06:40:11.243Z,20.55
2023-03-19T06:42:59.434Z,15.60
2023-03-19T06:45:47.670Z,19.48
2023-03-19T06:48:36.700Z,18.05
2023-03-19T06:51:27.881Z,17.45
2023-03-19T06:54:16.000Z,22.95
2023-03-19T06:57:04.086Z,16.08
2023-03-19T06:59:52.673Z,19.48
2023-03-19T07:02:40.742Z,21.55
2023-03-19T07:05:28.785Z,16.75
2023-03-19T07:08:16.846Z,20.38
2023-03-19T07:11:08.603Z,20.40
2023-03-19T07:13:56.693Z,18.38
2023-03-19T07:16:44.706Z,14.27
2023-03-19T07:19:32.662Z,20.27
2023-03-19T07:22:20.631Z,18.75
2023-03-19T07:25:09.059Z,18.17
2023-03-19T07:27:57.068Z,18.40
2023-03-19T07:30:45.295Z,21.55
2023-03-19T07:33:33.561Z,19.75
2023-03-19T07:36:23.917Z,17.13
2023-03-19T07:39:11.871Z,18.42
2023-03-19T07:41:59.851Z,18.90
2023-03-19T07:44:49.529Z,20.48
2023-03-19T07:47:37.627Z,18.48
2023-03-19T07:50:25.441Z,16.55
2023-03-19T07:53:13.333Z,19.42
2023-03-19T07:56:04.415Z,17.85
2023-03-19T07:58:52.559Z,20.50
2023-03-19T08:01:40.729Z,23.10
2023-03-19T08:04:28.763Z,16.90
2023-03-19T08:07:16.962Z,15.75
2023-03-19T08:10:07.232Z,19.73
2023-03-19T08:12:55.276Z,21.48
2023-03-19T08:15:43.556Z,20.13
2023-03-19T08:18:31.762Z,18.15
2023-03-19T08:21:19.855Z,18.38
2023-03-19T08:24:07.930Z,19.70
2023-03-19T08:26:56.316Z,17.65
2023-03-19T08:29:44.280Z,19.15
2023-03-19T08:32:32.660Z,17.50
2023-03-19T08:35:20.903Z,19.30
2023-03-19T08:38:08.841Z,15.27
2023-03-19T08:41:04.274Z,13.30
2023-03-19T08:43:52.589Z,13.68
2023-03-19T08:46:40.620Z,12.77
2023-03-19T08:49:28.592Z,15.63
2023-03-19T08:52:16.693Z,12.73
2023-03-19T08:55:05.986Z,12.60
2023-03-19T08:57:53.927Z,14.48
2023-03-19T09:00:41.898Z,14.90
2023-03-19T09:03:30.010Z,11.02
2023-03-19T09:06:18.122Z,12.30
2023-03-19T09:09:06.580Z,10.77
2023-03-19T09:11:54.539Z,10.73
2023-03-19T09:14:43.348Z,14.32
2023-03-19T09:17:31.400Z,8.73
2023-03-19T09:20:19.520Z,9.68
2023-03-19T09:23:07.459Z,10.80
2023-03-19T09:25:56.023Z,10.82
2023-03-19T09:28:46.302Z,11.43
2023-03-19T09:31:34.414Z,13.57
2023-03-19T09:34:22.694Z,15.77
2023-03-19T09:37:11.938Z,11.18
2023-03-19T09:40:00.143Z,10.27
2023-03-19T09:43:13.454Z,9.80
2023-03-19T09:46:06.866Z,6.75
2023-03-19T09:49:23.051Z,4.67
2023-03-19T09:52:44.499Z,5.65
2023-03-19T09:55:40.940Z,6.32
2023-03-19T09:58:34.238Z,5.70
2023-03-19T10:01:28.069Z,6.43
2023-03-19T10:04:49.627Z,6.25
2023-03-19T10:07:46.671Z,5.70
2023-03-19T10:10:59.442Z,5.10
2023-03-19T10:14:35.900Z,6.25
2023-03-19T10:17:32.955Z,6.15
2023-03-19T10:20:45.413Z,6.85
2023-03-19T10:23:53.180Z,7.63
2023-03-19T10:26:43.098Z,11.05
2023-03-19T10:29:31.820Z,5.15
2023-03-19T10:32:29.612Z,6.57
2023-03-19T10:35:41.949Z,5.47
2023-03-19T10:38:31.321Z,7.05
2023-03-19T10:41:38.733Z,8.43
2023-03-19T10:44:37.266Z,6.60
2023-03-19T10:47:28.453Z,6.70
2023-03-19T10:50:20.556Z,8.85
2023-03-19T10:53:33.259Z,11.75
2023-03-19T10:56:25.242Z,5.15
2023-03-19T10:59:25.740Z,4.70
2023-03-19T11:02:31.273Z,5.88
2023-03-19T11:05:22.204Z,5.00
2023-03-19T11:08:34.852Z,7.85
2023-03-19T11:11:36.928Z,10.68
2023-03-19T11:14:40.964Z,6.07
2023-03-19T11:17:50.180Z,6.22
2023-03-19T11:20:39.157Z,6.22
2023-03-19T11:23:41.715Z,14.90
2023-03-19T11:26:30.711Z,6.25
2023-03-19T11:29:18.954Z,7.20
2023-03-19T11:32:45.626Z,5.55
2023-03-19T11:36:01.779Z,6.63
2023-03-19T11:39:32.378Z,6.45
2023-03-19T11:42:41.350Z,6.57
2023-03-19T11:46:01.323Z,5.63
2023-03-19T11:49:46.373Z,6.38
2023-03-19T11:52:54.276Z,7.40
2023-03-19T11:56:16.262Z,6.07
2023-03-19T11:59:33.094Z,5.63
2023-03-19T12:03:00.069Z,6.60
2023-03-19T12:06:25.254Z,5.82
2023-03-19T12:09:49.780Z,6.30
2023-03-19T12:13:19.704Z,6.88
2023-03-19T12:16:46.113Z,6.45
2023-03-19T12:19:56.181Z,6.53
2023-03-19T12:23:04.626Z,8.63
2023-03-19T12:26:08.946Z,7.10
2023-03-19T12:29:15.066Z,8.60
2023-03-19T12:32:42.446Z,7.90
2023-03-19T12:35:36.967Z,7.75
2023-03-19T12:38:34.380Z,9.70
2023-03-19T12:41:26.189Z,7.63
2023-03-19T12:44:23.129Z,7.57
2023-03-19T12:47:38.653Z,6.50
2023-03-19T12:50:28.047Z,6.75
2023-03-19T12:53:47.896Z,6.50
2023-03-19T12:57:17.573Z,9.25
2023-03-19T13:00:42.732Z,5.47
2023-03-19T13:03:58.512Z,7.25
2023-03-19T13:07:18.434Z,5.28
2023-03-19T13:10:21.369Z,3.72
2023-03-19T13:13:44.445Z,10.35
2023-03-19T13:16:56.724Z,4.68
2023-03-19T13:19:54.524Z,5.00
2023-03-19T13:22:51.813Z,5.18
2023-03-19T13:25:48.434Z,5.95
2023-03-19T13:28:39.686Z,3.47
2023-03-19T13:31:29.061Z,3.75
2023-03-19T13:34:19.905Z,3.95
2023-03-19T13:37:28.299Z,3.35
2023-03-19T13:40:54.578Z,5.50
2023-03-19T13:43:52.290Z,5.43
2023-03-19T13:46:45.198Z,3.65
2023-03-19T13:50:16.475Z,2.90
2023-03-19T13:53:37.983Z,2.78
2023-03-19T13:56:30.662Z,1.48
2023-03-19T13:59:33.873Z,2.60
2023-03-19T14:02:21.733Z,4.38
2023-03-19T14:05:19.997Z,1.67
2023-03-19T14:08:20.758Z,1.50
2023-03-19T14:11:09.619Z,3.85
2023-03-19T14:14:08.266Z,1.55
2023-03-19T14:16:56.343Z,1.30
2023-03-19T14:19:44.343Z,1.80
2023-03-19T14:23:11.475Z,1.50
2023-03-19T14:26:24.595Z,1.52
2023-03-19T14:29:20.107Z,2.22
2023-03-19T14:32:17.098Z,1.83
2023-03-19T14:35:07.030Z,1.55
2023-03-19T14:37:56.305Z,1.85
2023-03-19T14:40:47.555Z,2.53
2023-03-19T14:43:50.644Z,5.00
2023-03-19T14:47:37.209Z,2.28
2023-03-19T14:50:50.570Z,4.88
2023-03-19T14:53:54.595Z,3.08
2023-03-19T14:56:43.146Z,1.75
2023-03-19T14:59:41.172Z,1.65
2023-03-19T15:02:44.152Z,4.43
2023-03-19T15:05:36.265Z,2.58
2023-03-19T15:08:26.654Z,3.78
2023-03-19T15:11:14.515Z,3.30
2023-03-19T15:14:36.223Z,3.25
2023-03-19T15:17:28.615Z,2.30
2023-03-19T15:20:21.901Z,2.50
2023-03-19T15:23:26.228Z,1.85
2023-03-19T15:26:18.503Z,2.33
2023-03-19T15:29:11.723Z,3.03
2023-03-19T15:32:05.264Z,1.45
2023-03-19T15:34:57.830Z,1.77
2023-03-19T15:37:51.996Z,0.80
2023-03-19T15:40:42.977Z,2.95
2023-03-19T15:43:32.076Z,1.77
2023-03-19T15:46:29.670Z,0.80
2023-03-19T15:49:37.780Z,1.63
2023-03-19T15:52:42.594Z,1.08
2023-03-19T15:55:30.776Z,0.98
2023-03-19T15:58:29.362Z,1.20
2023-03-19T16:01:19.189Z,3.90
2023-03-19T16:04:15.909Z,1.00
2023-03-19T16:07:07.298Z,1.00
2023-03-19T16:09:55.481Z,3.05
2023-03-19T16:12:43.525Z,1.20
2023-03-19T16:15:45.894Z,0.73
2023-03-19T16:18:55.654Z,0.80
2023-03-19T16:21:43.927Z,1.25
2023-03-19T16:24:37.621Z,1.25
2023-03-19T16:27:37.750Z,1.95
2023-03-19T16:30:27.357Z,2.40
2023-03-19T16:33:15.702Z,1.75
2023-03-19T16:36:04.194Z,1.95
2023-03-19T16:39:24.801Z,3.03
2023-03-19T16:42:34.507Z,1.80
2023-03-19T16:45:33.307Z,1.73
2023-03-19T16:48:21.399Z,5.95
2023-03-19T16:51:18.101Z,9.52
2023-03-19T16:54:07.485Z,6.00
2023-03-19T16:56:56.138Z,2.90
2023-03-19T16:59:45.685Z,2.83
2023-03-19T17:02:33.676Z,5.18
2023-03-19T17:05:22.445Z,3.70
2023-03-19T17:08:11.724Z,6.28
2023-03-19T17:10:59.617Z,3.53
2023-03-19T17:13:47.917Z,4.70
2023-03-19T17:16:36.350Z,4.68
2023-03-19T17:19:28.737Z,4.00
2023-03-19T17:22:16.829Z,3.08
2023-03-19T17:25:12.339Z,3.55
2023-03-19T17:28:00.307Z,5.50
2023-03-19T17:30:48.487Z,4.88
2023-03-19T17:33:36.795Z,7.43
2023-03-19T17:36:24.629Z,3.45
2023-03-19T17:39:12.474Z,4.57
2023-03-19T17:42:02.978Z,7.53
2023-03-19T17:44:51.210Z,6.22
2023-03-19T17:47:39.249Z,6.78
2023-03-19T17:50:31.578Z,4.40
2023-03-19T17:53:19.636Z,4.95
2023-03-19T17:56:14.640Z,4.72
2023-03-19T17:59:03.258Z,6.00
2023-03-19T18:01:52.282Z,4.32
2023-03-19T18:04:40.668Z,4.40
2023-03-19T18:07:31.605Z,6.25
2023-03-19T18:10:23.708Z,4.28
2023-03-19T18:13:12.018Z,4.10
2023-03-19T18:15:59.930Z,7.15
2023-03-19T18:18:51.087Z,4.88
2023-03-19T18:21:38.941Z,5.20
2023-03-19T18:24:27.418Z,4.50
2023-03-19T18:27:15.449Z,9.20
2023-03-19T18:30:03.638Z,5.18
2023-03-19T18:32:59.241Z,5.63
2023-03-19T18:35:48.408Z,5.68
2023-03-19T18:38:39.495Z,4.68
2023-03-19T18:41:31.430Z,5.43
2023-03-19T18:44:19.411Z,5.88
2023-03-19T18:47:15.747Z,7.68
2023-03-19T18:50:16.617Z,15.38
2023-03-19T18:53:04.804Z,17.92
2023-03-19T18:55:52.984Z,11.23
2023-03-19T18:58:41.186Z,8.43
2023-03-19T19:01:29.214Z,10.98
2023-03-19T19:04:17.698Z,7.75
2023-03-19T19:07:05.682Z,7.35
2023-03-19T19:09:53.629Z,7.82
2023-03-19T19:12:44.405Z,8.75
2023-03-19T19:15:36.515Z,6.07
2023-03-19T19:18:29.762Z,6.68
2023-03-19T19:21:17.624Z,6.05
2023-03-19T19:24:06.441Z,7.85
2023-03-19T19:26:54.577Z,9.75
2023-03-19T19:29:42.641Z,21.20
2023-03-19T19:32:31.011Z,23.48
2023-03-19T19:35:26.632Z,19.92
2023-03-19T19:38:16.311Z,17.02
2023-03-19T19:41:06.725Z,26.25
2023-03-19T19:43:56.176Z,15.13
2023-03-19T19:46:44.715Z,11.02
2023-03-19T19:49:34.761Z,9.57
2023-03-19T19:52:22.738Z,9.27
2023-03-19T19:55:11.073Z,9.90
2023-03-19T19:57:59.493Z,8.55
2023-03-19T20:01:02.365Z,10.75
2023-03-19T20:03:56.062Z,9.90
2023-03-19T20:06:46.691Z,8.80
2023-03-19T20:09:37.510Z,9.82
2023-03-19T20:12:36.471Z,8.93
2023-03-19T20:15:36.303Z,10.68
2023-03-19T20:18:30.771Z,10.77
2023-03-19T20:21:23.040Z,13.20
2023-03-19T20:24:11.531Z,11.38
2023-03-19T20:27:00.865Z,10.20
2023-03-19T20:29:50.790Z,9.43
2023-03-19T20:32:40.286Z,9.68
2023-03-19T20:35:35.000Z,8.23
2023-03-19T20:38:26.737Z,7.70
2023-03-19T20:41:24.670Z,7.15
2023-03-19T20:44:25.862Z,8.60
2023-03-19T20:47:21.281Z,7.93
2023-03-19T20:50:23.645Z,7.40
2023-03-19T20:53:14.626Z,11.32
2023-03-19T20:56:10.411Z,10.35
2023-03-19T20:58:58.383Z,9.18
2023-03-19T21:01:47.532Z,10.68
2023-03-19T21:04:42.025Z,9.93
2023-03-19T21:07:37.940Z,9.55
2023-03-19T21:10:45.996Z,8.85
2023-03-19T21:13:34.378Z,12.52
2023-03-19T21:16:30.227Z,10.85
2023-03-19T21:19:21.109Z,11.45
2023-03-19T21:22:28.583Z,9.80
2023-03-19T21:25:24.057Z,9.18
2023-03-19T21:28:26.556Z,8.45
2023-03-19T21:31:20.489Z,12.32
2023-03-19T21:37:01.289Z,8.73
2023-03-19T21:39:49.086Z,10.23
2023-03-19T21:42:38.083Z,7.95
2023-03-19T21:45:31.817Z,8.90
2023-03-19T21:48:30.683Z,9.13
2023-03-19T21:51:18.693Z,9.25
2023-03-19T21:54:06.460Z,12.27
2023-03-19T21:56:54.289Z,9.63
2023-03-19T21:59:45.152Z,8.73
2023-03-19T22:02:46.586Z,10.68
2023-03-19T22:05:34.964Z,9.60
2023-03-19T22:08:25.152Z,12.13
2023-03-19T22:11:24.543Z,10.38
2023-03-19T22:14:26.677Z,12.35
2023-03-19T22:17:14.559Z,10.75
2023-03-19T22:20:06.002Z,12.80
2023-03-19T22:22:55.404Z,12.13
2023-03-19T22:25:49.634Z,11.82
2023-03-19T22:31:25.572Z,12.90
2023-03-19T22:34:16.696Z,12.18
2023-03-19T22:37:34.249Z,13.43
2023-03-19T22:40:22.286Z,16.55
2023-03-19T22:43:32.945Z,15.25
2023-03-19T22:46:21.350Z,17.30
2023-03-19T22:49:17.654Z,15.60
2023-03-19T22:52:05.886Z,14.68
2023-03-19T22:54:53.773Z,19.20
2023-03-19T22:57:41.676Z,15.30
2023-03-19T23:00:29.629Z,16.70
2023-03-19T23:03:30.798Z,14.88
2023-03-19T23:06:30.192Z,15.70
2023-03-19T23:09:32.267Z,16.38
2023-03-19T23:12:20.612Z,17.20
2023-03-19T23:15:09.659Z,17.75
2023-03-19T23:17:59.785Z,15.43
2023-03-19T23:20:48.180Z,16.90
2023-03-19T23:23:36.191Z,21.02
2023-03-19T23:26:29.313Z,18.55
2023-03-19T23:29:25.077Z,18.00
2023-03-19T23:32:13.650Z,17.48
2023-03-19T23:35:02.182Z,19.50
2023-03-19T23:37:50.732Z,17.35
2023-03-19T23:40:41.496Z,18.52
2023-03-19T23:43:30.005Z,19.23
2023-03-19T23:46:18.299Z,23.15
2023-03-19T23:49:14.902Z,18.20
2023-03-19T23:52:04.551Z,17.92
2023-03-19T23:54:52.520Z,19.13
2023-03-19T23:57:40.620Z,19.15
